sensor_id;sensor_type;location;lat;lon;timestamp;P1;durP1;ratioP1;P2;durP2;ratioP2
65039;SDS011;51606;45.000;38.612;2023-02-28T00:00:35;5.45;;;1.80;;
65039;SDS011;51606;45.000;38.612;2023-02-28T00:03:02;1.80;;;1.48;;
65039;SDS011;51606;45.000;38.612;2023-02-28T00:05:29;3.00;;;1.77;;
65039;SDS011;51606;45.000;38.612;2023-02-28T00:07:55;5.13;;;1.90;;
65039;SDS011;51606;45.000;38.612;2023-02-28T00:10:23;4.43;;;2.60;;
65039;SDS011;51606;45.000;38.612;2023-02-28T00:12:52;5.50;;;2.42;;
65039;SDS011;51606;45.000;38.612;2023-02-28T00:15:20;3.85;;;2.20;;
65039;SDS011;51606;45.000;38.612;2023-02-28T00:17:48;2.97;;;1.88;;
65039;SDS011;51606;45.000;38.612;2023-02-28T00:20:15;3.47;;;2.00;;
65039;SDS011;51606;45.000;38.612;2023-02-28T00:22:43;7.10;;;3.05;;
65039;SDS011;51606;45.000;38.612;2023-02-28T00:25:12;6.25;;;2.38;;
65039;SDS011;51606;45.000;38.612;2023-02-28T00:27:40;3.35;;;1.77;;
65039;SDS011;51606;45.000;38.612;2023-02-28T00:30:08;2.13;;;1.73;;
65039;SDS011;51606;45.000;38.612;2023-02-28T00:32:37;4.13;;;1.98;;
65039;SDS011;51606;45.000;38.612;2023-02-28T00:35:04;3.13;;;2.17;;
65039;SDS011;51606;45.000;38.612;2023-02-28T00:37:31;3.90;;;2.53;;
65039;SDS011;51606;45.000;38.612;2023-02-28T00:39:58;4.38;;;2.40;;
65039;SDS011;51606;45.000;38.612;2023-02-28T00:42:27;6.80;;;1.90;;
65039;SDS011;51606;45.000;38.612;2023-02-28T00:44:53;2.50;;;1.67;;
65039;SDS011;51606;45.000;38.612;2023-02-28T03:42:44;0.80;;;0.75;;
65039;SDS011;51606;45.000;38.612;2023-02-28T03:45:16;1.92;;;1.40;;
65039;SDS011;51606;45.000;38.612;2023-02-28T03:50:29;4.53;;;2.22;;
65039;SDS011;51606;45.000;38.612;2023-02-28T03:55:42;2.60;;;1.50;;
65039;SDS011;51606;45.000;38.612;2023-02-28T03:58:57;2.83;;;1.27;;
65039;SDS011;51606;45.000;38.612;2023-02-28T04:01:16;5.97;;;1.83;;
65039;SDS011;51606;45.000;38.612;2023-02-28T04:03:46;5.72;;;1.40;;
65039;SDS011;51606;45.000;38.612;2023-02-28T04:06:20;3.05;;;1.42;;
65039;SDS011;51606;45.000;38.612;2023-02-28T04:08:48;1.60;;;1.35;;
65039;SDS011;51606;45.000;38.612;2023-02-28T04:13:43;1.80;;;1.40;;
65039;SDS011;51606;45.000;38.612;2023-02-28T04:16:10;2.38;;;1.67;;
65039;SDS011;51606;45.000;38.612;2023-02-28T04:18:41;3.17;;;1.58;;
65039;SDS011;51606;45.000;38.612;2023-02-28T04:21:09;4.97;;;1.80;;
65039;SDS011;51606;45.000;38.612;2023-02-28T04:23:36;2.30;;;1.60;;
65039;SDS011;51606;45.000;38.612;2023-02-28T04:26:02;4.78;;;1.88;;
65039;SDS011;51606;45.000;38.612;2023-02-28T04:28:29;1.67;;;1.40;;
65039;SDS011;51606;45.000;38.612;2023-02-28T04:30:56;2.15;;;1.17;;
65039;SDS011;51606;45.000;38.612;2023-02-28T04:33:24;1.60;;;1.48;;
65039;SDS011;51606;45.000;38.612;2023-02-28T04:36:03;2.17;;;1.38;;
65039;SDS011;51606;45.000;38.612;2023-02-28T04:38:33;2.63;;;1.40;;
65039;SDS011;51606;45.000;38.612;2023-02-28T04:41:00;2.17;;;1.63;;
65039;SDS011;51606;45.000;38.612;2023-02-28T04:43:27;2.10;;;1.25;;
65039;SDS011;51606;45.000;38.612;2023-02-28T04:45:55;2.10;;;1.52;;
65039;SDS011;51606;45.000;38.612;2023-02-28T04:48:23;1.30;;;1.10;;
65039;SDS011;51606;45.000;38.612;2023-02-28T04:51:00;0.87;;;0.87;;
65039;SDS011;51606;45.000;38.612;2023-02-28T04:53:27;1.33;;;1.17;;
65039;SDS011;51606;45.000;38.612;2023-02-28T04:55:55;1.45;;;1.30;;
65039;SDS011;51606;45.000;38.612;2023-02-28T04:58:22;1.23;;;1.13;;
65039;SDS011;51606;45.000;38.612;2023-02-28T05:00:49;1.80;;;1.00;;
65039;SDS011;51606;45.000;38.612;2023-02-28T05:03:16;3.35;;;1.60;;
65039;SDS011;51606;45.000;38.612;2023-02-28T05:05:42;1.67;;;1.27;;
65039;SDS011;51606;45.000;38.612;2023-02-28T05:08:09;5.03;;;1.63;;
65039;SDS011;51606;45.000;38.612;2023-02-28T05:10:35;4.15;;;2.63;;
65039;SDS011;51606;45.000;38.612;2023-02-28T05:13:02;2.83;;;2.13;;
65039;SDS011;51606;45.000;38.612;2023-02-28T05:15:29;4.22;;;2.35;;
65039;SDS011;51606;45.000;38.612;2023-02-28T05:17:55;4.97;;;1.88;;
65039;SDS011;51606;45.000;38.612;2023-02-28T05:20:22;6.72;;;2.63;;
65039;SDS011;51606;45.000;38.612;2023-02-28T05:22:49;4.82;;;2.08;;
65039;SDS011;51606;45.000;38.612;2023-02-28T05:25:17;3.25;;;1.63;;
65039;SDS011;51606;45.000;38.612;2023-02-28T05:27:45;2.67;;;1.90;;
65039;SDS011;51606;45.000;38.612;2023-02-28T05:30:11;8.60;;;2.50;;
65039;SDS011;51606;45.000;38.612;2023-02-28T05:32:39;5.28;;;2.08;;
65039;SDS011;51606;45.000;38.612;2023-02-28T05:35:11;3.40;;;2.10;;
65039;SDS011;51606;45.000;38.612;2023-02-28T05:37:38;2.65;;;1.70;;
65039;SDS011;51606;45.000;38.612;2023-02-28T05:40:05;2.85;;;1.88;;
65039;SDS011;51606;45.000;38.612;2023-02-28T05:42:33;5.53;;;2.13;;
65039;SDS011;51606;45.000;38.612;2023-02-28T05:44:59;4.22;;;2.05;;
65039;SDS011;51606;45.000;38.612;2023-02-28T05:47:26;4.63;;;2.75;;
65039;SDS011;51606;45.000;38.612;2023-02-28T05:49:52;9.98;;;2.67;;
65039;SDS011;51606;45.000;38.612;2023-02-28T05:52:19;13.63;;;2.22;;
65039;SDS011;51606;45.000;38.612;2023-02-28T05:54:46;4.78;;;2.28;;
65039;SDS011;51606;45.000;38.612;2023-02-28T05:57:13;6.25;;;2.90;;
65039;SDS011;51606;45.000;38.612;2023-02-28T05:59:39;7.15;;;2.50;;
65039;SDS011;51606;45.000;38.612;2023-02-28T06:02:06;5.15;;;3.22;;
65039;SDS011;51606;45.000;38.612;2023-02-28T06:04:37;10.98;;;2.92;;
65039;SDS011;51606;45.000;38.612;2023-02-28T06:07:04;6.63;;;2.17;;
65039;SDS011;51606;45.000;38.612;2023-02-28T06:09:30;3.50;;;1.88;;
65039;SDS011;51606;45.000;38.612;2023-02-28T06:12:00;3.63;;;2.22;;
65039;SDS011;51606;45.000;38.612;2023-02-28T06:14:29;2.88;;;1.70;;
65039;SDS011;51606;45.000;38.612;2023-02-28T06:16:56;4.60;;;2.25;;
65039;SDS011;51606;45.000;38.612;2023-02-28T06:19:24;4.55;;;2.20;;
65039;SDS011;51606;45.000;38.612;2023-02-28T06:21:51;2.50;;;1.50;;
65039;SDS011;51606;45.000;38.612;2023-02-28T06:24:19;13.88;;;2.80;;
65039;SDS011;51606;45.000;38.612;2023-02-28T06:26:46;5.63;;;2.42;;
65039;SDS011;51606;45.000;38.612;2023-02-28T06:29:13;6.65;;;2.58;;
65039;SDS011;51606;45.000;38.612;2023-02-28T06:31:42;3.22;;;2.22;;
65039;SDS011;51606;45.000;38.612;2023-02-28T06:34:09;8.82;;;1.95;;
65039;SDS011;51606;45.000;38.612;2023-02-28T06:36:37;4.78;;;2.22;;
65039;SDS011;51606;45.000;38.612;2023-02-28T06:39:05;8.73;;;2.97;;
65039;SDS011;51606;45.000;38.612;2023-02-28T06:41:32;5.53;;;1.88;;
65039;SDS011;51606;45.000;38.612;2023-02-28T06:44:04;6.05;;;2.25;;
65039;SDS011;51606;45.000;38.612;2023-02-28T06:46:31;6.90;;;2.08;;
65039;SDS011;51606;45.000;38.612;2023-02-28T06:48:58;7.47;;;2.30;;
65039;SDS011;51606;45.000;38.612;2023-02-28T06:51:24;3.58;;;2.00;;
65039;SDS011;51606;45.000;38.612;2023-02-28T06:53:52;3.58;;;2.03;;
65039;SDS011;51606;45.000;38.612;2023-02-28T06:56:18;2.33;;;1.75;;
65039;SDS011;51606;45.000;38.612;2023-02-28T06:58:46;6.45;;;2.42;;
65039;SDS011;51606;45.000;38.612;2023-02-28T07:01:14;5.32;;;2.65;;
65039;SDS011;51606;45.000;38.612;2023-02-28T07:03:41;9.23;;;4.32;;
65039;SDS011;51606;45.000;38.612;2023-02-28T07:06:07;8.45;;;2.25;;
65039;SDS011;51606;45.000;38.612;2023-02-28T07:08:34;5.05;;;3.20;;
65039;SDS011;51606;45.000;38.612;2023-02-28T07:11:03;7.53;;;2.80;;
65039;SDS011;51606;45.000;38.612;2023-02-28T07:13:30;9.43;;;2.40;;
65039;SDS011;51606;45.000;38.612;2023-02-28T07:16:00;5.90;;;2.13;;
65039;SDS011;51606;45.000;38.612;2023-02-28T07:18:29;3.53;;;2.15;;
65039;SDS011;51606;45.000;38.612;2023-02-28T07:20:56;6.70;;;1.95;;
65039;SDS011;51606;45.000;38.612;2023-02-28T07:23:22;6.78;;;2.40;;
65039;SDS011;51606;45.000;38.612;2023-02-28T07:25:50;4.68;;;2.00;;
65039;SDS011;51606;45.000;38.612;2023-02-28T07:28:17;2.40;;;1.88;;
65039;SDS011;51606;45.000;38.612;2023-02-28T07:30:43;3.40;;;1.83;;
65039;SDS011;51606;45.000;38.612;2023-02-28T07:33:10;8.48;;;2.85;;
65039;SDS011;51606;45.000;38.612;2023-02-28T07:35:36;6.90;;;3.22;;
65039;SDS011;51606;45.000;38.612;2023-02-28T07:38:03;4.18;;;2.83;;
65039;SDS011;51606;45.000;38.612;2023-02-28T07:40:29;13.88;;;3.13;;
65039;SDS011;51606;45.000;38.612;2023-02-28T07:42:56;4.55;;;2.95;;
65039;SDS011;51606;45.000;38.612;2023-02-28T07:45:24;4.53;;;2.50;;
65039;SDS011;51606;45.000;38.612;2023-02-28T07:47:51;7.70;;;2.92;;
65039;SDS011;51606;45.000;38.612;2023-02-28T07:50:17;7.20;;;3.05;;
65039;SDS011;51606;45.000;38.612;2023-02-28T07:52:44;5.50;;;2.70;;
65039;SDS011;51606;45.000;38.612;2023-02-28T07:55:10;9.93;;;3.35;;
65039;SDS011;51606;45.000;38.612;2023-02-28T07:57:37;17.90;;;3.42;;
65039;SDS011;51606;45.000;38.612;2023-02-28T08:00:04;6.55;;;3.30;;
65039;SDS011;51606;45.000;38.612;2023-02-28T08:02:37;8.52;;;3.75;;
65039;SDS011;51606;45.000;38.612;2023-02-28T08:05:04;8.38;;;3.40;;
65039;SDS011;51606;45.000;38.612;2023-02-28T08:07:32;14.65;;;4.30;;
65039;SDS011;51606;45.000;38.612;2023-02-28T08:09:58;7.72;;;2.80;;
65039;SDS011;51606;45.000;38.612;2023-02-28T08:12:25;9.75;;;3.33;;
65039;SDS011;51606;45.000;38.612;2023-02-28T08:14:52;7.65;;;3.55;;
65039;SDS011;51606;45.000;38.612;2023-02-28T08:17:18;18.95;;;4.35;;
65039;SDS011;51606;45.000;38.612;2023-02-28T08:19:45;9.07;;;3.97;;
65039;SDS011;51606;45.000;38.612;2023-02-28T08:22:12;7.20;;;3.75;;
65039;SDS011;51606;45.000;38.612;2023-02-28T08:24:40;10.93;;;3.63;;
65039;SDS011;51606;45.000;38.612;2023-02-28T08:27:08;10.10;;;3.63;;
65039;SDS011;51606;45.000;38.612;2023-02-28T08:29:36;10.90;;;3.83;;
65039;SDS011;51606;45.000;38.612;2023-02-28T08:32:04;7.38;;;3.35;;
65039;SDS011;51606;45.000;38.612;2023-02-28T08:34:31;23.08;;;4.05;;
65039;SDS011;51606;45.000;38.612;2023-02-28T08:36:58;10.15;;;4.00;;
65039;SDS011;51606;45.000;38.612;2023-02-28T08:39:24;7.38;;;4.07;;
65039;SDS011;51606;45.000;38.612;2023-02-28T08:41:51;7.80;;;4.10;;
65039;SDS011;51606;45.000;38.612;2023-02-28T08:44:17;11.00;;;6.32;;
65039;SDS011;51606;45.000;38.612;2023-02-28T08:46:44;8.73;;;4.22;;
65039;SDS011;51606;45.000;38.612;2023-02-28T08:49:10;15.15;;;4.07;;
65039;SDS011;51606;45.000;38.612;2023-02-28T08:51:38;10.38;;;4.45;;
65039;SDS011;51606;45.000;38.612;2023-02-28T08:54:04;12.30;;;4.20;;
65039;SDS011;51606;45.000;38.612;2023-02-28T08:56:30;8.07;;;3.47;;
65039;SDS011;51606;45.000;38.612;2023-02-28T08:58:57;15.57;;;4.78;;
65039;SDS011;51606;45.000;38.612;2023-02-28T09:01:24;14.77;;;4.38;;
65039;SDS011;51606;45.000;38.612;2023-02-28T09:03:53;4.95;;;3.10;;
65039;SDS011;51606;45.000;38.612;2023-02-28T09:06:21;8.70;;;3.38;;
65039;SDS011;51606;45.000;38.612;2023-02-28T09:08:49;7.72;;;3.20;;
65039;SDS011;51606;45.000;38.612;2023-02-28T09:11:16;6.32;;;3.28;;
65039;SDS011;51606;45.000;38.612;2023-02-28T09:13:44;5.57;;;3.25;;
65039;SDS011;51606;45.000;38.612;2023-02-28T09:16:12;8.85;;;3.55;;
65039;SDS011;51606;45.000;38.612;2023-02-28T09:18:39;7.38;;;3.67;;
65039;SDS011;51606;45.000;38.612;2023-02-28T09:21:07;4.35;;;3.13;;
65039;SDS011;51606;45.000;38.612;2023-02-28T09:23:35;4.97;;;3.47;;
65039;SDS011;51606;45.000;38.612;2023-02-28T09:26:04;6.10;;;4.20;;
65039;SDS011;51606;45.000;38.612;2023-02-28T09:28:31;13.40;;;5.00;;
65039;SDS011;51606;45.000;38.612;2023-02-28T09:30:57;7.07;;;4.35;;
65039;SDS011;51606;45.000;38.612;2023-02-28T09:33:24;13.20;;;4.68;;
65039;SDS011;51606;45.000;38.612;2023-02-28T09:35:57;8.45;;;4.65;;
65039;SDS011;51606;45.000;38.612;2023-02-28T09:38:24;8.93;;;5.10;;
65039;SDS011;51606;45.000;38.612;2023-02-28T09:40:58;11.27;;;5.20;;
65039;SDS011;51606;45.000;38.612;2023-02-28T09:53:54;16.88;;;4.57;;
65039;SDS011;51606;45.000;38.612;2023-02-28T09:56:25;12.40;;;5.70;;
65039;SDS011;51606;45.000;38.612;2023-02-28T10:04:26;13.10;;;6.75;;
65039;SDS011;51606;45.000;38.612;2023-02-28T10:07:46;12.85;;;6.47;;
65039;SDS011;51606;45.000;38.612;2023-02-28T10:16:10;12.95;;;5.90;;
65039;SDS011;51606;45.000;38.612;2023-02-28T10:18:47;9.60;;;5.68;;
65039;SDS011;51606;45.000;38.612;2023-02-28T10:21:26;15.23;;;5.85;;
65039;SDS011;51606;45.000;38.612;2023-02-28T10:24:30;12.45;;;6.05;;
65039;SDS011;51606;45.000;38.612;2023-02-28T10:26:58;12.13;;;6.50;;
65039;SDS011;51606;45.000;38.612;2023-02-28T10:29:27;12.63;;;5.50;;
65039;SDS011;51606;45.000;38.612;2023-02-28T10:31:58;6.72;;;4.45;;
65039;SDS011;51606;45.000;38.612;2023-02-28T10:34:28;7.82;;;4.88;;
65039;SDS011;51606;45.000;38.612;2023-02-28T10:36:54;9.13;;;5.18;;
65039;SDS011;51606;45.000;38.612;2023-02-28T10:39:41;11.20;;;5.10;;
65039;SDS011;51606;45.000;38.612;2023-02-28T10:42:20;7.30;;;4.90;;
65039;SDS011;51606;45.000;38.612;2023-02-28T10:47:41;15.73;;;5.15;;
65039;SDS011;51606;45.000;38.612;2023-02-28T10:50:29;9.57;;;4.80;;
65039;SDS011;51606;45.000;38.612;2023-02-28T10:53:19;11.75;;;4.90;;
65039;SDS011;51606;45.000;38.612;2023-02-28T10:58:28;13.85;;;5.00;;
65039;SDS011;51606;45.000;38.612;2023-02-28T11:01:20;13.18;;;5.50;;
65039;SDS011;51606;45.000;38.612;2023-02-28T11:03:56;8.60;;;5.53;;
65039;SDS011;51606;45.000;38.612;2023-02-28T11:06:25;14.00;;;5.28;;
65039;SDS011;51606;45.000;38.612;2023-02-28T11:08:56;13.30;;;5.90;;
65039;SDS011;51606;45.000;38.612;2023-02-28T11:11:41;17.33;;;5.65;;
65039;SDS011;51606;45.000;38.612;2023-02-28T11:14:18;12.32;;;6.57;;
65039;SDS011;51606;45.000;38.612;2023-02-28T11:16:53;11.52;;;4.65;;
65039;SDS011;51606;45.000;38.612;2023-02-28T11:19:40;6.97;;;4.15;;
65039;SDS011;51606;45.000;38.612;2023-02-28T11:22:16;8.80;;;4.53;;
65039;SDS011;51606;45.000;38.612;2023-02-28T11:24:47;11.60;;;5.60;;
65039;SDS011;51606;45.000;38.612;2023-02-28T11:27:39;16.95;;;5.53;;
65039;SDS011;51606;45.000;38.612;2023-02-28T11:30:25;15.23;;;6.65;;
65039;SDS011;51606;45.000;38.612;2023-02-28T11:32:57;11.15;;;5.70;;
65039;SDS011;51606;45.000;38.612;2023-02-28T11:35:26;17.67;;;7.22;;
65039;SDS011;51606;45.000;38.612;2023-02-28T11:37:53;17.98;;;7.25;;
65039;SDS011;51606;45.000;38.612;2023-02-28T11:40:30;12.20;;;6.68;;
65039;SDS011;51606;45.000;38.612;2023-02-28T11:48:57;38.60;;;7.60;;
65039;SDS011;51606;45.000;38.612;2023-02-28T11:51:28;19.77;;;8.15;;
65039;SDS011;51606;45.000;38.612;2023-02-28T12:00:17;21.42;;;5.50;;
65039;SDS011;51606;45.000;38.612;2023-02-28T12:03:48;7.07;;;4.80;;
65039;SDS011;51606;45.000;38.612;2023-02-28T12:09:02;16.45;;;6.20;;
65039;SDS011;51606;45.000;38.612;2023-02-28T12:14:30;10.15;;;4.72;;
65039;SDS011;51606;45.000;38.612;2023-02-28T12:17:40;10.43;;;4.70;;
65039;SDS011;51606;45.000;38.612;2023-02-28T12:20:33;11.40;;;4.45;;
65039;SDS011;51606;45.000;38.612;2023-02-28T12:23:05;8.85;;;4.43;;
65039;SDS011;51606;45.000;38.612;2023-02-28T12:25:55;10.70;;;5.60;;
65039;SDS011;51606;45.000;38.612;2023-02-28T12:28:42;12.48;;;6.00;;
65039;SDS011;51606;45.000;38.612;2023-02-28T12:31:18;28.27;;;5.43;;
65039;SDS011;51606;45.000;38.612;2023-02-28T12:33:52;9.52;;;4.45;;
65039;SDS011;51606;45.000;38.612;2023-02-28T12:36:25;7.57;;;4.28;;
65039;SDS011;51606;45.000;38.612;2023-02-28T12:41:34;13.57;;;5.25;;
65039;SDS011;51606;45.000;38.612;2023-02-28T12:44:22;24.15;;;5.72;;
65039;SDS011;51606;45.000;38.612;2023-02-28T12:46:55;18.13;;;7.10;;
65039;SDS011;51606;45.000;38.612;2023-02-28T12:49:27;21.40;;;7.13;;
65039;SDS011;51606;45.000;38.612;2023-02-28T12:51:59;15.30;;;7.35;;
65039;SDS011;51606;45.000;38.612;2023-02-28T12:54:30;20.35;;;7.35;;
65039;SDS011;51606;45.000;38.612;2023-02-28T12:57:19;58.20;;;7.10;;
65039;SDS011;51606;45.000;38.612;2023-02-28T12:59:59;11.05;;;5.80;;
65039;SDS011;51606;45.000;38.612;2023-02-28T13:05:22;15.70;;;6.75;;
65039;SDS011;51606;45.000;38.612;2023-02-28T13:11:04;16.98;;;7.80;;
65039;SDS011;51606;45.000;38.612;2023-02-28T13:13:30;8.95;;;5.53;;
65039;SDS011;51606;45.000;38.612;2023-02-28T13:16:04;22.52;;;7.65;;
65039;SDS011;51606;45.000;38.612;2023-02-28T13:21:09;6.13;;;3.72;;
65039;SDS011;51606;45.000;38.612;2023-02-28T13:27:10;6.57;;;2.78;;
65039;SDS011;51606;45.000;38.612;2023-02-28T13:34:42;14.48;;;6.32;;
65039;SDS011;51606;45.000;38.612;2023-02-28T13:39:57;11.40;;;6.65;;
65039;SDS011;51606;45.000;38.612;2023-02-28T13:42:36;15.18;;;6.45;;
65039;SDS011;51606;45.000;38.612;2023-02-28T13:47:48;13.95;;;6.68;;
65039;SDS011;51606;45.000;38.612;2023-02-28T14:11:38;15.75;;;5.97;;
65039;SDS011;51606;45.000;38.612;2023-02-28T14:14:07;20.63;;;5.63;;
65039;SDS011;51606;45.000;38.612;2023-02-28T14:21:36;9.90;;;4.95;;
65039;SDS011;51606;45.000;38.612;2023-02-28T14:29:45;6.82;;;4.07;;
65039;SDS011;51606;45.000;38.612;2023-02-28T14:37:20;7.78;;;5.03;;
65039;SDS011;51606;45.000;38.612;2023-02-28T14:39:56;10.65;;;6.30;;
65039;SDS011;51606;45.000;38.612;2023-02-28T14:42:27;16.13;;;5.75;;
65039;SDS011;51606;45.000;38.612;2023-02-28T14:44:56;8.88;;;4.05;;
65039;SDS011;51606;45.000;38.612;2023-02-28T14:47:23;8.00;;;4.82;;
65039;SDS011;51606;45.000;38.612;2023-02-28T14:49:58;9.63;;;4.00;;
65039;SDS011;51606;45.000;38.612;2023-02-28T14:52:28;6.32;;;3.90;;
65039;SDS011;51606;45.000;38.612;2023-02-28T14:54:58;14.02;;;5.57;;
65039;SDS011;51606;45.000;38.612;2023-02-28T14:57:30;7.70;;;5.03;;
65039;SDS011;51606;45.000;38.612;2023-02-28T15:00:04;13.65;;;4.57;;
65039;SDS011;51606;45.000;38.612;2023-02-28T15:02:42;7.50;;;3.85;;
65039;SDS011;51606;45.000;38.612;2023-02-28T15:07:36;8.23;;;4.43;;
65039;SDS011;51606;45.000;38.612;2023-02-28T15:15:22;8.68;;;4.38;;
65039;SDS011;51606;45.000;38.612;2023-02-28T15:18:01;7.03;;;4.25;;
65039;SDS011;51606;45.000;38.612;2023-02-28T15:20:29;11.57;;;3.92;;
65039;SDS011;51606;45.000;38.612;2023-02-28T15:22:57;14.38;;;6.72;;
65039;SDS011;51606;45.000;38.612;2023-02-28T15:25:25;8.30;;;4.47;;
65039;SDS011;51606;45.000;38.612;2023-02-28T15:27:53;7.72;;;4.57;;
65039;SDS011;51606;45.000;38.612;2023-02-28T15:30:31;6.88;;;4.78;;
65039;SDS011;51606;45.000;38.612;2023-02-28T15:35:37;9.95;;;3.90;;
65039;SDS011;51606;45.000;38.612;2023-02-28T15:38:13;8.02;;;4.60;;
65039;SDS011;51606;45.000;38.612;2023-02-28T15:40:46;8.43;;;4.05;;
65039;SDS011;51606;45.000;38.612;2023-02-28T15:43:26;12.93;;;4.97;;
65039;SDS011;51606;45.000;38.612;2023-02-28T15:45:59;8.70;;;4.32;;
65039;SDS011;51606;45.000;38.612;2023-02-28T15:48:44;4.28;;;2.80;;
65039;SDS011;51606;45.000;38.612;2023-02-28T16:02:48;4.07;;;2.83;;
65039;SDS011;51606;45.000;38.612;2023-02-28T16:05:19;3.13;;;2.00;;
65039;SDS011;51606;45.000;38.612;2023-02-28T16:08:13;4.53;;;3.13;;
65039;SDS011;51606;45.000;38.612;2023-02-28T16:10:41;3.72;;;2.85;;
65039;SDS011;51606;45.000;38.612;2023-02-28T16:13:08;6.38;;;3.85;;
65039;SDS011;51606;45.000;38.612;2023-02-28T16:15:41;9.93;;;2.88;;
65039;SDS011;51606;45.000;38.612;2023-02-28T16:18:12;8.68;;;3.50;;
65039;SDS011;51606;45.000;38.612;2023-02-28T16:20:39;6.35;;;2.85;;
65039;SDS011;51606;45.000;38.612;2023-02-28T16:23:06;5.18;;;3.15;;
65039;SDS011;51606;45.000;38.612;2023-02-28T16:25:37;6.18;;;3.38;;
65039;SDS011;51606;45.000;38.612;2023-02-28T16:28:10;5.75;;;3.83;;
65039;SDS011;51606;45.000;38.612;2023-02-28T16:30:43;6.68;;;3.20;;
65039;SDS011;51606;45.000;38.612;2023-02-28T16:33:09;3.50;;;1.92;;
65039;SDS011;51606;45.000;38.612;2023-02-28T16:35:36;2.15;;;1.85;;
65039;SDS011;51606;45.000;38.612;2023-02-28T16:38:02;2.85;;;1.80;;
65039;SDS011;51606;45.000;38.612;2023-02-28T16:40:29;5.22;;;2.83;;
65039;SDS011;51606;45.000;38.612;2023-02-28T16:43:00;3.35;;;1.70;;
65039;SDS011;51606;45.000;38.612;2023-02-28T17:11:20;1.85;;;1.63;;
65039;SDS011;51606;45.000;38.612;2023-02-28T17:13:47;3.75;;;2.03;;
65039;SDS011;51606;45.000;38.612;2023-02-28T17:16:19;1.60;;;1.33;;
65039;SDS011;51606;45.000;38.612;2023-02-28T17:19:12;3.25;;;1.77;;
65039;SDS011;51606;45.000;38.612;2023-02-28T17:21:40;3.70;;;2.33;;
65039;SDS011;51606;45.000;38.612;2023-02-28T17:24:07;3.40;;;1.77;;
65039;SDS011;51606;45.000;38.612;2023-02-28T17:26:40;3.90;;;3.05;;
65039;SDS011;51606;45.000;38.612;2023-02-28T17:29:17;4.55;;;2.60;;
65039;SDS011;51606;45.000;38.612;2023-02-28T17:31:45;6.22;;;3.45;;
65039;SDS011;51606;45.000;38.612;2023-02-28T17:34:12;5.47;;;4.03;;
65039;SDS011;51606;45.000;38.612;2023-02-28T17:36:44;4.32;;;2.78;;
65039;SDS011;51606;45.000;38.612;2023-02-28T17:39:12;3.28;;;2.47;;
65039;SDS011;51606;45.000;38.612;2023-02-28T17:41:46;4.00;;;1.88;;
65039;SDS011;51606;45.000;38.612;2023-02-28T17:44:12;2.45;;;1.85;;
65039;SDS011;51606;45.000;38.612;2023-02-28T17:46:39;5.55;;;3.10;;
65039;SDS011;51606;45.000;38.612;2023-02-28T17:49:05;6.93;;;3.28;;
65039;SDS011;51606;45.000;38.612;2023-02-28T17:51:32;4.20;;;2.53;;
65039;SDS011;51606;45.000;38.612;2023-02-28T17:53:58;3.53;;;2.00;;
65039;SDS011;51606;45.000;38.612;2023-02-28T17:56:25;2.70;;;2.13;;
65039;SDS011;51606;45.000;38.612;2023-02-28T17:58:53;4.38;;;2.75;;
65039;SDS011;51606;45.000;38.612;2023-02-28T18:01:20;7.97;;;2.58;;
65039;SDS011;51606;45.000;38.612;2023-02-28T18:03:48;4.45;;;2.47;;
65039;SDS011;51606;45.000;38.612;2023-02-28T18:08:53;4.75;;;1.88;;
65039;SDS011;51606;45.000;38.612;2023-02-28T18:11:21;1.67;;;1.58;;
65039;SDS011;51606;45.000;38.612;2023-02-28T18:13:50;1.50;;;1.23;;
65039;SDS011;51606;45.000;38.612;2023-02-28T18:16:18;3.03;;;2.35;;
65039;SDS011;51606;45.000;38.612;2023-02-28T18:18:46;2.65;;;1.88;;
65039;SDS011;51606;45.000;38.612;2023-02-28T18:21:14;3.28;;;1.77;;
65039;SDS011;51606;45.000;38.612;2023-02-28T18:23:42;1.83;;;1.23;;
65039;SDS011;51606;45.000;38.612;2023-02-28T18:26:17;2.03;;;1.50;;
65039;SDS011;51606;45.000;38.612;2023-02-28T18:28:44;1.92;;;1.63;;
65039;SDS011;51606;45.000;38.612;2023-02-28T18:31:13;3.95;;;1.80;;
65039;SDS011;51606;45.000;38.612;2023-02-28T18:33:46;3.78;;;1.55;;
65039;SDS011;51606;45.000;38.612;2023-02-28T18:36:14;1.33;;;1.23;;
65039;SDS011;51606;45.000;38.612;2023-02-28T18:38:41;2.15;;;1.40;;
65039;SDS011;51606;45.000;38.612;2023-02-28T18:41:08;3.63;;;1.98;;
65039;SDS011;51606;45.000;38.612;2023-02-28T18:43:35;3.42;;;1.75;;
65039;SDS011;51606;45.000;38.612;2023-02-28T18:46:05;3.95;;;1.88;;
65039;SDS011;51606;45.000;38.612;2023-02-28T18:48:36;2.88;;;2.63;;
65039;SDS011;51606;45.000;38.612;2023-02-28T18:51:09;7.32;;;2.15;;
65039;SDS011;51606;45.000;38.612;2023-02-28T18:53:37;5.60;;;3.22;;
65039;SDS011;51606;45.000;38.612;2023-02-28T18:56:05;3.83;;;1.70;;
65039;SDS011;51606;45.000;38.612;2023-02-28T18:58:33;1.88;;;1.30;;
65039;SDS011;51606;45.000;38.612;2023-02-28T19:01:00;4.82;;;2.53;;
65039;SDS011;51606;45.000;38.612;2023-02-28T19:03:28;2.90;;;1.63;;
65039;SDS011;51606;45.000;38.612;2023-02-28T19:05:55;4.45;;;2.03;;
65039;SDS011;51606;45.000;38.612;2023-02-28T19:08:23;1.95;;;1.75;;
65039;SDS011;51606;45.000;38.612;2023-02-28T19:10:50;3.78;;;1.45;;
65039;SDS011;51606;45.000;38.612;2023-02-28T19:13:17;4.03;;;2.00;;
65039;SDS011;51606;45.000;38.612;2023-02-28T19:15:45;2.90;;;2.03;;
65039;SDS011;51606;45.000;38.612;2023-02-28T19:18:12;2.28;;;1.83;;
65039;SDS011;51606;45.000;38.612;2023-02-28T19:20:38;2.20;;;1.77;;
65039;SDS011;51606;45.000;38.612;2023-02-28T19:23:05;2.13;;;1.50;;
65039;SDS011;51606;45.000;38.612;2023-02-28T19:25:31;2.17;;;1.77;;
65039;SDS011;51606;45.000;38.612;2023-02-28T19:27:57;5.75;;;1.70;;
65039;SDS011;51606;45.000;38.612;2023-02-28T19:30:24;3.08;;;1.90;;
65039;SDS011;51606;45.000;38.612;2023-02-28T19:32:50;2.70;;;2.00;;
65039;SDS011;51606;45.000;38.612;2023-02-28T19:35:16;1.33;;;1.23;;
65039;SDS011;51606;45.000;38.612;2023-02-28T19:37:43;1.48;;;1.38;;
65039;SDS011;51606;45.000;38.612;2023-02-28T19:40:09;2.15;;;1.95;;
65039;SDS011;51606;45.000;38.612;2023-02-28T19:42:38;2.35;;;0.93;;
65039;SDS011;51606;45.000;38.612;2023-02-28T19:45:04;0.28;;;0.28;;
65039;SDS011;51606;45.000;38.612;2023-02-28T19:47:34;1.80;;;1.15;;
65039;SDS011;51606;45.000;38.612;2023-02-28T19:50:01;1.90;;;1.00;;
65039;SDS011;51606;45.000;38.612;2023-02-28T19:52:27;1.25;;;0.80;;
65039;SDS011;51606;45.000;38.612;2023-02-28T19:54:53;1.38;;;0.98;;
65039;SDS011;51606;45.000;38.612;2023-02-28T19:57:20;6.32;;;1.67;;
65039;SDS011;51606;45.000;38.612;2023-02-28T19:59:46;0.95;;;0.88;;
65039;SDS011;51606;45.000;38.612;2023-02-28T20:02:13;0.90;;;0.90;;
65039;SDS011;51606;45.000;38.612;2023-02-28T20:04:41;1.65;;;1.10;;
65039;SDS011;51606;45.000;38.612;2023-02-28T20:07:11;10.05;;;1.02;;
65039;SDS011;51606;45.000;38.612;2023-02-28T20:09:37;1.73;;;1.38;;
65039;SDS011;51606;45.000;38.612;2023-02-28T20:12:04;0.88;;;0.60;;
65039;SDS011;51606;45.000;38.612;2023-02-28T20:14:30;1.58;;;1.35;;
65039;SDS011;51606;45.000;38.612;2023-02-28T20:16:57;1.10;;;0.90;;
65039;SDS011;51606;45.000;38.612;2023-02-28T20:19:23;4.78;;;0.82;;
65039;SDS011;51606;45.000;38.612;2023-02-28T20:21:50;0.80;;;0.38;;
65039;SDS011;51606;45.000;38.612;2023-02-28T20:24:16;1.63;;;0.88;;
65039;SDS011;51606;45.000;38.612;2023-02-28T20:26:43;1.35;;;1.10;;
65039;SDS011;51606;45.000;38.612;2023-02-28T20:29:09;2.25;;;1.20;;